Naknek, Alaska
Current Conditions -  °F | °C
As of 7:56 AM on Thursday 23 Oct 2014 (Local Time) from PFWS Reporting Station
Clear Clear  
Wind Chill: 21°   Ceiling: Unl
Heat Index: 28°   Visibility: 10mi
Dew Point: 24°   Wind: 7mph
Humidity: 85%   Direction: 310°NW
Pressure: 29.94"   Gusts: NA
Location:  58.73°N, 157.02°W
Report Text: PFWS 231556Z AUTO 31006KT 10SM CLR M02/M04 A2994 RMK AO2 SLP145 T10221044 FZRANO
Loading
Personal Weather Stations






























Interactive Weather Map
Tropical Storm Tracking
New forecast layout! Learn more

10-Day Weather Forecast

Advertisements
Track Severe Weather on mobile